Airfield :
LOGIN :

Register | Disclaimer

   EN    FR    IT 

 










Legend :    VFR   Marginal VFR   IFR   Intensive IFR   Very Intensive IFR
Visi :
Ceiling :
>= 8 km
>= 3000ft
5 to 8 km
1000 to 3000 ft
1500m to 5 km
500 to 1000 ft
800 to 1500m
200 to 500 ft
< 800m
< 200 ft
Symbols :   Thunderstorms  Fog  Heavy snow  Heavy precipitations  Wind > 20 kt
SIGMETs :     Misc.  Thunderstorms  Icing  Turbulence  Mountain Waves  Volcanic Ashes







- Airport Elevation : 348 ft
- IATA code : STN
- Download approach charts


EGSS - London Stansted

CURRENT METAR :
  • 201750Z AUTO 04008KT 6000 -RA SCT026 OVC030 03/02 Q1006

EXPIRED METARs :
  • 201720Z AUTO 03006KT 6000 -RA SCT023 OVC029 03/02 Q1006
  • 201650Z AUTO 05009KT 6000 -RA BKN019 OVC028 03/02 Q1006
  • 201620Z 05008KT 5000 -RA SCT019 BKN026 BKN032 03/02 Q1006
  • 201550Z 05010KT 7000 -RA FEW012 SCT026 OVC038 03/02 Q1006 RESG
  • 201520Z AUTO 05010KT 9999 -RA FEW012 BKN030 BKN038 03/02 Q1006

TAF TAF EGSS
Valid from the 20 at 18:00 until the 22 at 00:00 UTC


201705Z 2018/2124 05010KT 9999 FEW012 BKN020
TEMPO 2018/2020 7000 SHRA BKN010
BECMG 2020/2023 BKN008
TEMPO 2020/2024 4000 RA BKN004
BECMG 2100/2103 12006KT 6000 BKN004
PROB30
TEMPO 2103/2108 1300 BR OVC001
BECMG 2109/2112 9999 SCT020
PROB30 2121/2124 7000 BKN008
ATIS : +44 1279 669 325
No reported NOTAMs for that airfield.
1 SIGMET reported for the London FIR (EGTT) :
 
Severe mountain waves
EGTT SIGMET 03 VALID 201700/202100 EGRR
EGTT LONDON FIR SEV MTW FCST WI N5500 W00220 - N5322 W00134 - N5158 W00304 - N5149 W00510 - N5500 W00447 - N5500 W00220 FL030/120 MOV N 10KT NC=



MET'MAP, your aeronautical weather chart ! - Copyright ORBIFLY December 2007 - Disclaimer

ORBIFLY MET'MAP TEAM :

Programming & Development : Alexandra Zaïnal
Concept & Development : Baudouin d'Aumeries
Co-Development & Prog : Marc-Olivier Méhu
Technical & hardware support : Manuel Goepfert

Contact : metmap@orbifly.com




SOURCES & CREDITS :

   NOAA